Time;durP1;ratioP1;P1;durP2;ratioP2;P2;SDS_P1;SDS_P2;PMS_P1;PMS_P2;Temp;Humidity;BMP_temperature;BMP_pressure;BME280_temperature;BME280_humidity;BME280_pressure;Samples;Min_cycle;Max_cycle;Signal;HPM_P1;HPM_P2
2022/01/19 00:01:21;;;;;;;10.63;5.30;;;4.90;99.90;;;;;;5048015;28;20420;-78
2022/01/19 00:03:46;;;;;;;10.87;5.70;;;4.90;99.90;;;;;;5047589;28;20437;-79
2022/01/19 00:06:12;;;;;;;8.30;5.03;;;4.80;99.90;;;;;;5047510;28;20554;-79
2022/01/19 00:08:39;;;;;;;8.13;4.80;;;4.80;99.90;;;;;;5047125;28;20182;-78
2022/01/19 00:11:05;;;;;;;8.83;5.20;;;4.80;99.90;;;;;;5046874;28;20438;-78
2022/01/19 00:13:31;;;;;;;7.80;4.33;;;4.80;99.90;;;;;;5046610;28;20447;-79
2022/01/19 00:15:57;;;;;;;6.70;5.00;;;4.70;99.90;;;;;;5052196;28;20450;-79
2022/01/19 00:18:24;;;;;;;8.33;5.50;;;4.70;99.90;;;;;;5054409;28;20536;-79
2022/01/19 00:20:52;;;;;;;6.47;5.07;;;4.70;99.90;;;;;;5054892;28;20178;-79
2022/01/19 00:23:18;;;;;;;6.63;4.60;;;4.70;99.90;;;;;;5053643;28;20471;-79
2022/01/19 00:25:46;;;;;;;7.43;5.40;;;4.70;99.90;;;;;;5053964;28;20446;-79
2022/01/19 00:28:12;;;;;;;6.83;4.90;;;4.70;99.90;;;;;;5053484;28;20432;-79
2022/01/19 00:30:38;;;;;;;9.67;4.93;;;4.70;99.90;;;;;;5053126;28;20414;-79
2022/01/19 00:33:04;;;;;;;8.87;5.00;;;4.60;99.90;;;;;;5053445;28;20524;-79
2022/01/19 00:35:30;;;;;;;7.70;5.00;;;4.60;99.90;;;;;;5052609;28;20423;-79
2022/01/19 00:37:56;;;;;;;9.30;4.50;;;4.60;99.90;;;;;;5051216;28;20219;-79
2022/01/19 00:40:21;;;;;;;6.77;4.50;;;4.60;99.90;;;;;;5052952;28;20422;-79
2022/01/19 00:42:49;;;;;;;6.67;4.60;;;4.50;99.90;;;;;;5049095;28;20619;-78
2022/01/19 00:45:15;;;;;;;6.90;4.80;;;4.50;99.90;;;;;;5048358;28;20190;-79
2022/01/19 00:47:42;;;;;;;10.27;5.50;;;4.50;99.90;;;;;;5047396;28;20423;-78
2022/01/19 00:50:10;;;;;;;6.97;5.30;;;4.50;99.90;;;;;;5047908;28;20455;-78
2022/01/19 00:52:37;;;;;;;7.03;4.53;;;4.50;99.90;;;;;;5047244;28;20852;-79
2022/01/19 00:57:30;;;;;;;5.87;4.60;;;4.50;99.90;;;;;;5091137;22;20657;-86
2022/01/19 00:59:55;;;;;;;7.50;4.70;;;4.50;99.90;;;;;;5054276;28;20450;-86
2022/01/19 01:02:21;;;;;;;6.43;4.60;;;4.50;99.90;;;;;;5072170;28;20177;-84
2022/01/19 01:04:47;;;;;;;8.40;4.63;;;4.50;99.90;;;;;;5072146;28;20218;-84
2022/01/19 01:07:12;;;;;;;7.47;4.70;;;4.50;99.90;;;;;;5072496;28;20201;-84
2022/01/19 01:09:38;;;;;;;9.20;4.10;;;4.40;99.90;;;;;;5067837;28;20499;-85
2022/01/19 01:12:12;;;;;;;6.53;4.57;;;4.40;99.90;;;;;;5073436;28;20181;-86
2022/01/19 01:20:09;;;;;;;6.93;4.33;;;4.30;99.90;;;;;;5092520;28;20419;-86
2022/01/19 01:22:37;;;;;;;6.07;3.70;;;4.20;99.90;;;;;;5092087;28;20406;-86
2022/01/19 01:25:03;;;;;;;7.97;4.57;;;4.20;99.90;;;;;;5073861;28;20412;-86
2022/01/19 01:27:29;;;;;;;7.03;4.50;;;4.10;99.90;;;;;;5091714;28;20424;-86
2022/01/19 01:29:54;;;;;;;7.87;5.10;;;4.10;99.90;;;;;;5092016;28;20853;-86
2022/01/19 01:32:20;;;;;;;7.30;5.03;;;4.10;99.90;;;;;;5073532;28;20663;-86
2022/01/19 01:34:46;;;;;;;8.63;5.00;;;4.10;99.90;;;;;;5073953;28;20178;-86
2022/01/19 01:37:11;;;;;;;6.93;5.33;;;4.20;99.90;;;;;;5073312;28;20625;-86
2022/01/19 01:39:37;;;;;;;9.10;5.13;;;4.30;99.90;;;;;;5073959;28;20273;-86
2022/01/19 01:42:14;;;;;;;11.03;5.83;;;4.40;99.90;;;;;;5073435;28;20672;-84
2022/01/19 01:44:44;;;;;;;8.70;5.67;;;4.50;99.90;;;;;;5091736;28;20410;-84
2022/01/19 01:47:10;;;;;;;7.07;4.50;;;4.60;99.90;;;;;;5073285;28;20667;-84
2022/01/19 01:55:07;;;;;;;6.77;4.90;;;4.80;99.90;;;;;;5092041;28;20479;-84
2022/01/19 01:57:33;;;;;;;7.30;4.60;;;4.90;99.90;;;;;;5073029;28;20466;-84
2022/01/19 01:59:58;;;;;;;6.10;4.87;;;4.90;99.90;;;;;;5075022;28;21040;-84
2022/01/19 02:02:24;;;;;;;7.33;5.10;;;5.00;99.90;;;;;;5077578;28;20181;-84
2022/01/19 02:04:50;;;;;;;5.97;4.53;;;5.10;99.90;;;;;;5077545;28;20186;-84
2022/01/19 02:07:32;;;;;;;5.80;5.17;;;5.10;99.90;;;;;;5077290;28;20256;-84
2022/01/19 02:10:01;;;;;;;6.90;5.17;;;5.20;99.90;;;;;;5095586;28;20228;-84
2022/01/19 02:23:27;;;;;;;10.60;5.57;;;5.30;99.90;;;;;;5095452;28;20433;-84
2022/01/19 02:25:56;;;;;;;10.03;5.33;;;5.30;99.90;;;;;;5077017;28;20446;-84
2022/01/19 02:42:11;;;;;;;11.00;7.30;;;5.20;99.90;;;;;;5095452;28;20429;-84
2022/01/19 02:46:38;;;;;;;10.77;8.53;;;5.30;99.90;;;;;;5076772;28;20426;-84
2022/01/19 02:49:58;;;;;;;8.70;7.37;;;5.40;99.90;;;;;;5095310;28;20509;-84
2022/01/19 02:52:25;;;;;;;10.37;7.47;;;5.40;99.90;;;;;;5076800;28;20494;-84
2022/01/19 02:54:51;;;;;;;11.77;9.10;;;5.40;99.90;;;;;;5094753;28;20405;-84
2022/01/19 02:57:20;;;;;;;10.10;8.50;;;5.40;99.90;;;;;;5094319;28;20469;-84
2022/01/19 03:10:34;;;;;;;9.20;7.73;;;5.50;99.90;;;;;;5095102;28;20839;-84
2022/01/19 03:13:00;;;;;;;11.53;8.00;;;5.50;99.90;;;;;;5076176;28;20425;-84
2022/01/19 03:15:27;;;;;;;8.97;7.73;;;5.50;99.90;;;;;;5076239;28;20208;-84
2022/01/19 03:17:57;;;;;;;11.07;8.97;;;5.50;99.90;;;;;;5075898;28;20238;-84
2022/01/19 03:20:23;;;;;;;10.13;7.87;;;5.50;99.90;;;;;;5076083;28;20414;-84
2022/01/19 03:25:26;;;;;;;10.83;8.03;;;5.70;99.90;;;;;;5094163;28;20258;-84
2022/01/19 03:27:52;;;;;;;8.47;6.80;;;5.70;99.90;;;;;;5093988;28;20411;-84
2022/01/19 03:30:19;;;;;;;8.93;6.70;;;5.70;99.90;;;;;;5076336;28;20195;-84
2022/01/19 03:32:45;;;;;;;9.73;7.20;;;5.70;99.90;;;;;;5094726;28;20170;-84
2022/01/19 03:35:11;;;;;;;8.03;6.30;;;5.70;99.90;;;;;;5075833;28;20916;-84
2022/01/19 03:37:38;;;;;;;10.57;7.23;;;5.80;99.90;;;;;;5075548;28;20215;-84
2022/01/19 03:40:06;;;;;;;9.70;6.80;;;5.80;99.90;;;;;;5094044;28;20411;-84
2022/01/19 03:42:32;;;;;;;9.00;6.50;;;5.70;99.90;;;;;;5075780;28;21033;-84
2022/01/19 03:44:58;;;;;;;7.57;6.30;;;5.70;99.90;;;;;;5093821;28;20433;-84
2022/01/19 03:47:26;;;;;;;9.00;6.67;;;5.70;99.90;;;;;;5075308;28;20219;-84
2022/01/19 03:49:52;;;;;;;9.07;6.17;;;5.70;99.90;;;;;;5073531;28;20525;-84
2022/01/19 03:52:18;;;;;;;8.70;5.60;;;5.70;99.90;;;;;;5071411;28;20431;-84
2022/01/19 03:54:44;;;;;;;7.20;5.47;;;5.70;99.90;;;;;;5067237;28;20411;-84
2022/01/19 03:57:11;;;;;;;7.50;5.40;;;5.60;99.90;;;;;;5093061;28;20261;-84
2022/01/19 03:59:37;;;;;;;7.20;5.03;;;5.60;99.90;;;;;;5093748;28;20979;-84
2022/01/19 04:02:04;;;;;;;6.13;4.97;;;5.50;99.90;;;;;;5093551;28;20415;-84
2022/01/19 04:09:26;;;;;;;8.77;5.70;;;5.30;99.90;;;;;;5093646;28;20408;-84
2022/01/19 04:11:52;;;;;;;7.30;5.80;;;5.40;99.90;;;;;;5075161;28;20785;-84
2022/01/19 04:14:21;;;;;;;6.90;4.97;;;5.40;99.90;;;;;;5075074;28;20506;-84
2022/01/19 04:16:48;;;;;;;6.73;5.40;;;5.40;99.90;;;;;;5074672;28;20477;-84
2022/01/19 04:21:52;;;;;;;12.93;6.87;;;5.40;99.90;;;;;;5093191;28;20458;-84
2022/01/19 04:24:18;;;;;;;8.40;6.00;;;5.50;99.90;;;;;;5074032;28;20427;-84
2022/01/19 04:26:46;;;;;;;9.00;6.60;;;5.60;99.90;;;;;;5074454;28;20542;-84
2022/01/19 04:29:12;;;;;;;6.10;4.53;;;5.60;99.90;;;;;;5074709;28;20786;-85
2022/01/19 04:31:38;;;;;;;9.67;5.60;;;5.70;99.90;;;;;;5074771;28;20445;-84
2022/01/19 04:34:05;;;;;;;13.17;6.13;;;5.80;99.90;;;;;;5074799;28;20267;-84
2022/01/19 04:36:58;;;;;;;7.87;5.70;;;5.90;99.90;;;;;;5074379;28;20862;-84
2022/01/19 04:44:52;;;;;;;7.30;5.50;;;6.00;99.90;;;;;;5093211;28;20414;-84
2022/01/19 04:48:25;;;;;;;7.37;6.07;;;6.00;99.90;;;;;;5092319;28;20879;-84
2022/01/19 05:04:19;;;;;;;6.30;4.93;;;6.00;99.90;;;;;;5092842;28;20464;-84
2022/01/19 05:06:50;;;;;;;6.17;4.00;;;6.00;99.90;;;;;;5091991;28;20436;-84
2022/01/19 05:14:45;;;;;;;5.33;4.07;;;6.10;99.90;;;;;;5092182;28;20419;-84
2022/01/19 05:17:10;;;;;;;6.20;4.70;;;6.10;99.90;;;;;;5091806;28;20604;-84
2022/01/19 05:19:36;;;;;;;5.63;4.97;;;6.10;99.90;;;;;;5074117;28;20940;-84
2022/01/19 05:22:02;;;;;;;7.93;5.10;;;6.20;99.90;;;;;;5074026;28;20181;-84
2022/01/19 05:24:27;;;;;;;6.70;4.93;;;6.20;99.90;;;;;;5091712;28;20268;-84
2022/01/19 05:26:53;;;;;;;5.90;4.80;;;6.20;99.90;;;;;;5073517;28;20436;-84
2022/01/19 05:29:19;;;;;;;5.40;4.40;;;6.20;99.90;;;;;;5073970;28;20185;-84
2022/01/19 05:31:44;;;;;;;6.10;4.97;;;6.10;99.90;;;;;;5074257;28;20554;-84
2022/01/19 05:34:10;;;;;;;5.63;3.90;;;6.10;99.90;;;;;;5073439;28;20664;-84
2022/01/19 05:36:35;;;;;;;5.27;4.23;;;6.10;99.90;;;;;;5073138;28;20211;-84
2022/01/19 05:39:04;;;;;;;5.20;4.13;;;6.00;99.90;;;;;;5073915;28;20185;-84
2022/01/19 05:41:31;;;;;;;7.00;4.57;;;6.00;99.90;;;;;;5073487;28;20184;-84
2022/01/19 05:43:56;;;;;;;5.67;4.03;;;6.00;99.90;;;;;;5091686;28;20415;-84
2022/01/19 05:46:22;;;;;;;6.50;4.33;;;6.00;99.90;;;;;;5073378;28;20810;-84
2022/01/19 05:48:48;;;;;;;4.93;3.70;;;6.00;99.90;;;;;;5073601;28;20213;-84
2022/01/19 05:51:14;;;;;;;6.83;4.40;;;6.10;99.90;;;;;;5091941;28;20447;-84
2022/01/19 05:53:40;;;;;;;4.43;3.80;;;6.10;99.90;;;;;;5073751;28;20177;-84
2022/01/19 05:56:06;;;;;;;4.77;3.80;;;6.10;99.90;;;;;;5073339;28;20255;-84
2022/01/19 05:58:32;;;;;;;6.10;4.63;;;6.10;99.90;;;;;;5073261;28;20463;-84
2022/01/19 06:00:57;;;;;;;6.50;5.23;;;6.10;99.90;;;;;;5073705;28;20995;-84
2022/01/19 06:03:23;;;;;;;5.47;4.07;;;6.10;99.90;;;;;;5073782;28;20299;-84
2022/01/19 06:05:48;;;;;;;7.33;5.27;;;6.00;99.90;;;;;;5073508;28;20193;-84
2022/01/19 06:08:28;;;;;;;5.27;4.20;;;6.00;99.90;;;;;;5073541;28;20220;-84
2022/01/19 06:10:55;;;;;;;5.17;3.97;;;6.00;99.90;;;;;;5091379;28;20588;-84
2022/01/19 06:13:22;;;;;;;7.37;4.20;;;6.10;99.90;;;;;;5073585;28;20606;-84
2022/01/19 06:15:48;;;;;;;6.00;4.30;;;6.10;99.90;;;;;;5073230;28;20530;-84
2022/01/19 06:18:16;;;;;;;4.77;3.90;;;6.10;99.90;;;;;;5073174;28;20471;-84
2022/01/19 06:20:44;;;;;;;5.80;4.40;;;6.10;99.90;;;;;;5073202;28;20507;-84
2022/01/19 06:23:10;;;;;;;4.93;4.23;;;6.10;99.90;;;;;;5073285;28;20434;-84
2022/01/19 06:25:36;;;;;;;4.53;3.50;;;6.00;99.90;;;;;;5091057;28;20435;-84
2022/01/19 06:28:02;;;;;;;7.37;3.70;;;6.00;99.90;;;;;;5091367;28;20777;-84
2022/01/19 06:30:28;;;;;;;6.10;4.70;;;5.90;99.90;;;;;;5073253;28;20691;-84
2022/01/19 06:32:54;;;;;;;5.83;4.70;;;5.90;99.90;;;;;;5091303;28;20418;-84
2022/01/19 06:35:20;;;;;;;6.60;5.07;;;5.80;99.90;;;;;;5091436;28;20820;-84
2022/01/19 06:37:46;;;;;;;6.83;4.70;;;5.70;99.90;;;;;;5073082;28;20516;-84
2022/01/19 06:40:14;;;;;;;5.23;3.90;;;5.80;99.90;;;;;;5073159;28;20431;-84
2022/01/19 06:42:40;;;;;;;6.17;5.37;;;5.80;99.90;;;;;;5073151;28;20182;-84
2022/01/19 06:45:06;;;;;;;6.00;4.73;;;5.70;99.90;;;;;;5073200;28;20493;-84
2022/01/19 06:47:33;;;;;;;6.60;5.70;;;5.80;99.90;;;;;;5093071;28;20264;-84
2022/01/19 06:49:59;;;;;;;7.10;4.90;;;5.70;99.90;;;;;;5095074;28;20416;-84
2022/01/19 06:52:25;;;;;;;5.77;4.57;;;5.80;99.90;;;;;;5076706;28;20434;-84
2022/01/19 06:54:50;;;;;;;7.67;6.00;;;5.80;99.90;;;;;;5094827;28;20840;-84
2022/01/19 06:57:16;;;;;;;7.23;5.47;;;5.80;99.90;;;;;;5071382;22;20505;-84
2022/01/19 06:59:41;;;;;;;7.30;5.03;;;5.80;99.90;;;;;;5009047;28;20182;-85
2022/01/19 07:02:07;;;;;;;9.30;5.37;;;5.80;99.90;;;;;;4998697;28;20968;-84
2022/01/19 07:04:33;;;;;;;6.17;4.50;;;5.90;99.90;;;;;;4978340;28;20184;-83
2022/01/19 07:06:59;;;;;;;8.13;5.00;;;5.90;99.90;;;;;;4977916;28;20470;-83
2022/01/19 07:09:24;;;;;;;6.57;4.87;;;6.00;99.90;;;;;;4978111;28;20181;-83
2022/01/19 07:11:50;;;;;;;6.03;4.47;;;5.90;99.90;;;;;;4995673;28;20716;-83
2022/01/19 07:14:17;;;;;;;6.80;5.40;;;5.80;99.90;;;;;;4994156;28;20247;-83
2022/01/19 07:16:44;;;;;;;5.37;4.67;;;5.90;99.90;;;;;;4977648;28;20464;-84
2022/01/19 07:19:10;;;;;;;6.67;5.30;;;5.90;99.90;;;;;;4977877;28;20428;-83
2022/01/19 07:21:36;;;;;;;7.03;5.40;;;6.00;99.90;;;;;;4995323;28;20413;-83
2022/01/19 07:24:02;;;;;;;5.27;4.70;;;6.00;99.90;;;;;;4995281;28;20471;-83
2022/01/19 07:26:27;;;;;;;8.93;6.33;;;6.00;99.90;;;;;;4994868;28;20229;-84
2022/01/19 07:28:53;;;;;;;7.43;5.87;;;6.00;99.90;;;;;;4977790;28;20457;-83
2022/01/19 07:31:19;;;;;;;7.97;6.87;;;6.00;99.90;;;;;;4977876;28;20189;-84
2022/01/19 07:33:44;;;;;;;9.20;6.80;;;6.00;99.90;;;;;;4995287;28;20185;-84
2022/01/19 07:36:10;;;;;;;8.60;6.77;;;6.00;99.90;;;;;;4994858;28;20664;-83
2022/01/19 07:38:35;;;;;;;7.37;6.03;;;6.00;99.90;;;;;;4977348;28;20631;-83
2022/01/19 07:41:01;;;;;;;8.90;6.83;;;6.00;99.90;;;;;;4985492;28;20188;-84
2022/01/19 07:43:26;;;;;;;7.23;5.40;;;6.00;99.90;;;;;;5016581;28;20196;-85
2022/01/19 07:45:52;;;;;;;9.33;6.83;;;6.10;99.90;;;;;;4995568;28;20213;-83
2022/01/19 07:48:17;;;;;;;7.30;6.00;;;6.00;99.90;;;;;;4989126;28;20515;-84
2022/01/19 07:50:43;;;;;;;8.53;6.33;;;5.90;99.90;;;;;;4998872;28;20192;-84
2022/01/19 07:53:09;;;;;;;6.70;5.03;;;5.90;99.90;;;;;;4998632;28;20196;-84
2022/01/19 07:55:34;;;;;;;8.50;5.70;;;6.00;99.90;;;;;;5016156;28;20185;-83
2022/01/19 07:58:01;;;;;;;8.20;6.07;;;6.00;99.90;;;;;;5015472;28;20216;-84
2022/01/19 08:00:28;;;;;;;9.07;6.50;;;6.10;99.90;;;;;;5016021;28;20260;-84
2022/01/19 08:02:53;;;;;;;7.97;6.40;;;6.00;99.90;;;;;;4999499;28;20451;-84
2022/01/19 08:05:19;;;;;;;8.53;6.20;;;6.00;99.90;;;;;;5012955;28;20792;-85
2022/01/19 08:07:45;;;;;;;9.57;7.30;;;6.00;99.90;;;;;;5015407;28;20585;-84
2022/01/19 08:10:12;;;;;;;12.07;7.90;;;6.00;99.90;;;;;;4998295;28;20611;-84
2022/01/19 08:12:37;;;;;;;10.27;7.20;;;6.00;99.90;;;;;;5015591;28;20451;-84
2022/01/19 08:15:05;;;;;;;8.90;6.20;;;6.00;99.90;;;;;;4997779;28;20437;-84
2022/01/19 08:17:31;;;;;;;9.77;6.90;;;6.00;99.90;;;;;;4997230;28;20224;-85
2022/01/19 08:19:58;;;;;;;9.30;6.70;;;6.00;99.90;;;;;;4997525;28;20423;-84
2022/01/19 08:22:24;;;;;;;12.20;7.07;;;6.00;99.90;;;;;;4997138;28;20423;-84
2022/01/19 08:24:49;;;;;;;10.40;7.37;;;6.00;99.90;;;;;;4997102;28;20456;-84
2022/01/19 08:27:16;;;;;;;11.63;7.00;;;6.00;99.90;;;;;;5015081;28;20439;-84
2022/01/19 08:29:42;;;;;;;9.87;7.03;;;6.00;99.90;;;;;;5015168;28;20780;-85
2022/01/19 08:32:09;;;;;;;12.97;7.60;;;6.00;99.90;;;;;;5014617;28;20423;-85
2022/01/19 08:34:35;;;;;;;11.30;7.80;;;6.00;99.90;;;;;;5014810;28;20199;-84
2022/01/19 08:37:01;;;;;;;9.20;6.97;;;6.00;99.90;;;;;;4996172;28;20469;-84
2022/01/19 08:39:27;;;;;;;9.27;6.90;;;6.00;99.90;;;;;;5014696;28;20422;-84
2022/01/19 08:41:53;;;;;;;10.10;7.43;;;5.90;99.90;;;;;;4996662;28;20509;-84
2022/01/19 08:44:21;;;;;;;9.33;6.40;;;6.00;99.90;;;;;;4996770;28;20664;-84
2022/01/19 08:46:47;;;;;;;9.30;6.23;;;6.00;99.90;;;;;;5013761;28;20538;-84
2022/01/19 08:49:14;;;;;;;12.87;7.23;;;6.00;99.90;;;;;;5013979;28;20420;-84
2022/01/19 08:51:39;;;;;;;10.17;7.60;;;6.00;99.90;;;;;;4996115;28;20426;-83
2022/01/19 08:54:05;;;;;;;9.60;6.90;;;6.00;99.90;;;;;;4996052;28;20804;-84
2022/01/19 08:56:31;;;;;;;11.33;7.70;;;6.10;99.90;;;;;;5013304;28;20219;-84
2022/01/19 08:58:57;;;;;;;12.60;7.30;;;6.00;99.90;;;;;;4996014;28;20648;-84
2022/01/19 09:01:23;;;;;;;9.83;6.90;;;6.00;99.90;;;;;;4996160;28;20456;-84
2022/01/19 09:03:49;;;;;;;11.60;7.70;;;6.10;99.90;;;;;;4995407;28;20424;-84
2022/01/19 09:06:15;;;;;;;10.20;7.53;;;6.20;99.90;;;;;;4995635;28;20231;-84
2022/01/19 09:08:40;;;;;;;11.90;8.43;;;6.10;99.90;;;;;;4995453;28;20188;-84
2022/01/19 09:11:06;;;;;;;9.53;7.07;;;6.10;99.90;;;;;;4995590;28;20187;-83
2022/01/19 09:13:33;;;;;;;10.77;7.57;;;6.20;99.90;;;;;;4995641;28;20220;-84
2022/01/19 09:15:58;;;;;;;11.47;8.37;;;6.20;99.90;;;;;;4995702;28;20211;-84
2022/01/19 09:18:25;;;;;;;10.30;7.20;;;6.20;99.90;;;;;;4995402;28;20456;-84
2022/01/19 09:20:50;;;;;;;12.47;7.70;;;6.30;99.90;;;;;;4996223;28;20191;-85
2022/01/19 09:23:16;;;;;;;10.77;8.13;;;6.30;99.90;;;;;;4995499;28;20499;-84
2022/01/19 09:25:41;;;;;;;11.23;7.10;;;6.40;99.90;;;;;;4995146;28;20187;-83
2022/01/19 09:28:07;;;;;;;11.10;7.50;;;6.40;99.90;;;;;;4995043;28;20562;-84
2022/01/19 09:30:34;;;;;;;10.73;7.80;;;6.40;99.90;;;;;;5012589;28;20172;-84
2022/01/19 09:33:19;;;;;;;10.03;6.90;;;6.40;99.90;;;;;;4994969;28;20412;-84
2022/01/19 09:38:27;;;;;;;22.37;8.40;;;6.40;99.90;;;;;;5012505;28;20455;-83
2022/01/19 09:40:53;;;;;;;9.50;7.30;;;6.40;99.90;;;;;;4994570;28;20427;-84
2022/01/19 09:43:22;;;;;;;10.47;8.10;;;6.40;99.90;;;;;;4994915;28;20422;-83
2022/01/19 09:45:52;;;;;;;12.47;8.20;;;6.50;99.90;;;;;;4994601;28;20434;-84
2022/01/19 09:48:19;;;;;;;11.70;7.47;;;6.50;99.90;;;;;;4994907;28;20440;-84
2022/01/19 09:50:44;;;;;;;11.90;7.87;;;6.50;99.90;;;;;;4994642;28;20416;-84
2022/01/19 09:53:10;;;;;;;10.13;7.73;;;6.50;99.90;;;;;;5012406;28;20784;-84
2022/01/19 09:55:38;;;;;;;12.07;7.77;;;6.50;99.90;;;;;;4994651;28;20183;-84
2022/01/19 09:58:04;;;;;;;10.57;7.13;;;6.40;99.90;;;;;;4994381;28;20205;-84
2022/01/19 10:00:30;;;;;;;11.13;7.80;;;6.40;99.90;;;;;;5012092;28;20408;-84
2022/01/19 10:03:12;;;;;;;10.53;7.37;;;6.50;99.90;;;;;;4994547;28;20931;-84
2022/01/19 10:05:53;;;;;;;11.07;7.60;;;6.50;99.90;;;;;;4994337;28;20183;-85
2022/01/19 10:08:30;;;;;;;11.80;7.60;;;6.50;99.90;;;;;;5011927;28;20949;-84
2022/01/19 10:17:09;;;;;;;12.67;8.60;;;6.30;99.90;;;;;;5011052;28;20565;-82
2022/01/19 10:19:49;;;;;;;12.80;8.70;;;6.20;99.90;;;;;;5011771;28;20395;-83
2022/01/19 10:22:22;;;;;;;14.00;10.20;;;6.10;99.90;;;;;;5011917;28;21323;-82
2022/01/19 10:25:04;;;;;;;12.37;8.20;;;6.10;99.90;;;;;;5015463;28;20414;-82
2022/01/19 10:27:32;;;;;;;11.53;8.80;;;5.90;99.90;;;;;;4997833;28;20478;-82
2022/01/19 10:30:04;;;;;;;13.97;9.57;;;6.00;99.90;;;;;;4982592;28;20428;-82
2022/01/19 10:32:46;;;;;;;10.47;8.43;;;6.10;99.90;;;;;;4998215;28;20439;-83
2022/01/19 10:35:32;;;;;;;11.47;8.13;;;6.20;99.90;;;;;;4987772;28;20477;-81
2022/01/19 10:38:05;;;;;;;10.93;8.43;;;6.10;99.90;;;;;;5008286;28;20452;-85
2022/01/19 10:40:31;;;;;;;17.13;8.73;;;6.20;99.90;;;;;;5011642;28;20485;-82
2022/01/19 10:42:57;;;;;;;11.57;9.47;;;6.20;99.90;;;;;;5010742;28;20417;-83
2022/01/19 10:45:22;;;;;;;13.80;9.10;;;6.30;99.90;;;;;;4978098;28;21099;-83
2022/01/19 10:47:53;;;;;;;11.83;8.50;;;6.30;99.90;;;;;;4995199;28;20598;-83
2022/01/19 10:50:33;;;;;;;10.83;8.43;;;6.30;99.90;;;;;;4977637;28;20276;-82
2022/01/19 10:53:00;;;;;;;11.10;8.77;;;6.20;99.90;;;;;;5002060;28;20434;-81
2022/01/19 10:55:29;;;;;;;11.97;9.20;;;6.30;99.90;;;;;;4997091;28;20440;-81
2022/01/19 10:57:56;;;;;;;11.43;8.83;;;6.30;99.90;;;;;;4997089;28;20475;-82
2022/01/19 11:00:31;;;;;;;11.50;9.00;;;6.30;99.90;;;;;;4999695;28;20453;-83
2022/01/19 11:03:12;;;;;;;12.80;8.70;;;6.40;99.90;;;;;;5002116;28;20427;-82
2022/01/19 11:05:41;;;;;;;11.80;9.40;;;6.40;99.90;;;;;;5015803;28;20932;-82
2022/01/19 11:08:06;;;;;;;12.83;9.90;;;6.50;99.90;;;;;;5016163;28;20459;-82
2022/01/19 11:10:32;;;;;;;11.07;8.40;;;6.50;99.90;;;;;;4998017;28;20465;-82
2022/01/19 11:12:59;;;;;;;17.40;9.63;;;6.50;99.90;;;;;;5016718;28;20338;-82
2022/01/19 11:15:25;;;;;;;11.20;9.37;;;6.50;99.90;;;;;;4998365;28;20596;-82
2022/01/19 11:17:50;;;;;;;11.27;8.83;;;6.50;99.90;;;;;;4998078;28;20836;-83
2022/01/19 11:20:19;;;;;;;11.87;8.90;;;6.40;99.90;;;;;;4999365;28;20412;-83
2022/01/19 11:23:02;;;;;;;16.70;9.57;;;6.60;99.90;;;;;;4998312;28;20235;-84
2022/01/19 11:26:04;;;;;;;10.80;8.33;;;6.70;99.90;;;;;;4998219;28;20991;-82
2022/01/19 11:28:38;;;;;;;11.27;8.60;;;6.80;99.90;;;;;;4987777;28;20921;-82
2022/01/19 11:31:08;;;;;;;12.73;8.50;;;6.60;99.90;;;;;;4997015;28;20473;-81
2022/01/19 11:33:41;;;;;;;13.20;8.97;;;6.60;99.90;;;;;;4996867;28;20423;-83
2022/01/19 11:36:21;;;;;;;13.83;8.70;;;6.60;99.90;;;;;;4997447;28;20801;-82
2022/01/19 11:38:53;;;;;;;13.23;9.67;;;6.60;99.90;;;;;;4996969;28;20893;-82
2022/01/19 11:41:19;;;;;;;17.57;10.40;;;6.70;99.90;;;;;;5014419;28;20455;-82
2022/01/19 11:43:57;;;;;;;13.20;9.00;;;6.70;99.90;;;;;;5015348;28;20404;-82
2022/01/19 11:46:31;;;;;;;20.80;9.57;;;6.70;99.90;;;;;;4995521;28;20212;-84
2022/01/19 11:49:02;;;;;;;16.30;10.50;;;6.60;99.90;;;;;;4997583;28;20474;-82
2022/01/19 11:51:31;;;;;;;12.57;9.30;;;6.50;99.90;;;;;;5014540;28;20507;-83
2022/01/19 11:54:14;;;;;;;12.90;9.23;;;6.60;99.90;;;;;;5017345;28;20503;-83
2022/01/19 11:57:10;;;;;;;13.53;9.40;;;6.40;99.90;;;;;;5012371;28;20968;-81
2022/01/19 11:59:45;;;;;;;15.03;8.77;;;6.30;99.90;;;;;;4996649;28;20427;-84
2022/01/19 12:02:23;;;;;;;11.80;8.87;;;6.30;99.90;;;;;;4995877;28;20514;-84
2022/01/19 12:04:52;;;;;;;13.40;9.00;;;6.40;99.90;;;;;;5013262;28;20499;-85
2022/01/19 12:07:39;;;;;;;13.70;10.47;;;6.30;99.90;;;;;;5013375;28;21035;-86
2022/01/19 12:10:21;;;;;;;12.47;9.30;;;6.20;99.90;;;;;;5012259;28;20415;-84
2022/01/19 12:16:18;;;;;;;13.27;9.00;;;6.20;99.90;;;;;;5013189;28;20454;-82
2022/01/19 12:18:56;;;;;;;11.47;8.47;;;6.10;99.90;;;;;;5011867;28;20983;-83
2022/01/19 12:21:31;;;;;;;13.40;10.47;;;6.10;99.90;;;;;;5011917;28;20458;-85
2022/01/19 12:24:24;;;;;;;14.17;8.23;;;6.10;99.90;;;;;;5012255;28;20462;-84
2022/01/19 12:26:59;;;;;;;15.17;9.70;;;6.20;99.90;;;;;;5011489;28;20443;-84
2022/01/19 12:29:36;;;;;;;11.57;8.73;;;6.20;99.90;;;;;;5011803;28;20427;-85
2022/01/19 12:32:04;;;;;;;14.00;9.00;;;6.20;99.90;;;;;;5011576;28;20450;-83
2022/01/19 12:35:11;;;;;;;14.07;9.10;;;6.10;99.90;;;;;;5012019;28;20435;-85
2022/01/19 12:37:48;;;;;;;12.87;9.60;;;6.00;99.90;;;;;;5009193;28;20542;-84
2022/01/19 12:40:17;;;;;;;13.40;9.27;;;6.00;99.90;;;;;;5011501;28;20421;-84
2022/01/19 12:42:43;;;;;;;14.27;9.80;;;6.10;99.90;;;;;;5016524;28;20430;-83
2022/01/19 12:45:22;;;;;;;15.83;9.57;;;6.20;99.90;;;;;;4994638;28;20474;-84
2022/01/19 12:47:49;;;;;;;11.80;9.07;;;6.10;99.90;;;;;;5012099;28;20527;-82
2022/01/19 12:50:17;;;;;;;14.90;10.40;;;6.10;99.90;;;;;;5011962;28;20514;-83
2022/01/19 12:52:55;;;;;;;15.83;10.43;;;6.10;99.90;;;;;;4995425;28;20442;-83
2022/01/19 12:55:48;;;;;;;16.43;10.70;;;6.10;99.90;;;;;;5012786;28;20495;-83
2022/01/19 12:58:28;;;;;;;18.00;11.23;;;6.00;99.90;;;;;;5006580;28;21084;-84
2022/01/19 13:00:56;;;;;;;15.30;9.70;;;6.10;99.90;;;;;;5012756;28;20945;-85
2022/01/19 13:03:32;;;;;;;15.47;10.57;;;6.00;99.90;;;;;;4994944;28;20924;-85
2022/01/19 13:06:17;;;;;;;16.73;11.50;;;6.00;99.90;;;;;;5010974;28;20439;-84
2022/01/19 13:09:04;;;;;;;14.63;10.20;;;5.90;99.90;;;;;;5011310;28;20423;-84
2022/01/19 13:11:42;;;;;;;16.30;10.93;;;6.00;99.90;;;;;;5012360;28;20404;-85
2022/01/19 13:14:12;;;;;;;19.03;11.63;;;5.90;99.90;;;;;;5011355;28;20415;-84
2022/01/19 13:16:44;;;;;;;14.83;10.20;;;5.90;99.90;;;;;;5011533;28;20530;-83
2022/01/19 13:19:22;;;;;;;16.43;10.87;;;6.00;99.90;;;;;;5011280;28;20412;-82
2022/01/19 13:22:04;;;;;;;19.03;12.30;;;6.00;99.90;;;;;;5011109;28;21020;-84
2022/01/19 13:24:32;;;;;;;16.90;10.93;;;5.90;99.90;;;;;;4995028;28;20459;-84
2022/01/19 13:27:07;;;;;;;17.67;11.07;;;6.00;99.90;;;;;;4994183;28;20448;-83
2022/01/19 13:29:39;;;;;;;15.80;10.50;;;6.00;99.90;;;;;;4994386;28;20902;-84
2022/01/19 13:32:15;;;;;;;16.77;10.90;;;6.00;99.90;;;;;;4994475;28;20435;-85
2022/01/19 13:34:52;;;;;;;18.90;10.23;;;6.00;99.90;;;;;;4994580;28;20511;-84
2022/01/19 13:37:18;;;;;;;16.60;10.67;;;6.10;99.90;;;;;;5008922;28;20482;-84
2022/01/19 13:39:43;;;;;;;16.83;11.60;;;6.20;99.90;;;;;;5011114;28;20507;-83
2022/01/19 13:42:09;;;;;;;17.27;11.80;;;6.20;99.90;;;;;;5010489;28;21134;-84
2022/01/19 13:44:38;;;;;;;15.33;10.60;;;6.10;99.90;;;;;;5010901;28;20184;-84
2022/01/19 13:47:25;;;;;;;17.33;10.70;;;6.10;99.90;;;;;;5011478;28;20442;-83
2022/01/19 13:49:54;;;;;;;18.40;10.90;;;6.10;99.90;;;;;;5010192;28;20419;-84
2022/01/19 13:52:24;;;;;;;15.00;10.17;;;6.00;99.90;;;;;;4991723;28;20468;-85
2022/01/19 13:54:50;;;;;;;16.13;10.50;;;6.00;99.90;;;;;;4998107;28;20809;-85
2022/01/19 13:57:29;;;;;;;15.40;11.07;;;6.00;99.90;;;;;;4989819;28;20476;-84
2022/01/19 14:00:07;;;;;;;16.50;10.27;;;6.00;99.90;;;;;;4985816;28;20189;-84
2022/01/19 14:02:33;;;;;;;18.17;11.10;;;6.00;99.90;;;;;;4997641;28;20980;-85
2022/01/19 14:05:01;;;;;;;16.03;10.77;;;6.00;99.90;;;;;;4999853;28;20424;-84
2022/01/19 14:07:26;;;;;;;18.53;12.13;;;6.00;99.90;;;;;;5009948;28;20227;-85
2022/01/19 14:09:52;;;;;;;18.77;11.03;;;6.00;99.90;;;;;;5001012;28;20940;-85
2022/01/19 14:12:19;;;;;;;20.57;12.13;;;5.90;99.90;;;;;;5000635;28;20250;-84
2022/01/19 14:14:48;;;;;;;17.67;11.23;;;5.80;99.90;;;;;;5018382;28;20180;-84
2022/01/19 14:17:31;;;;;;;16.50;11.17;;;5.80;99.90;;;;;;5017992;28;20466;-84
2022/01/19 14:19:58;;;;;;;18.93;12.27;;;5.70;99.90;;;;;;5001881;28;20519;-85
2022/01/19 14:22:25;;;;;;;18.07;11.83;;;5.70;99.90;;;;;;5000274;28;20902;-84
2022/01/19 14:25:14;;;;;;;18.80;10.70;;;5.70;99.90;;;;;;4999860;28;20427;-84
2022/01/19 14:27:50;;;;;;;21.00;13.27;;;5.70;99.90;;;;;;5018525;28;20436;-84
2022/01/19 14:30:28;;;;;;;19.43;12.47;;;5.50;99.90;;;;;;5018570;28;20489;-85
2022/01/19 14:33:09;;;;;;;17.43;11.97;;;5.50;99.90;;;;;;5000712;28;20419;-85
2022/01/19 14:35:38;;;;;;;18.80;12.60;;;5.50;99.90;;;;;;4997220;28;20941;-85
2022/01/19 14:38:10;;;;;;;20.07;10.87;;;5.50;99.90;;;;;;4997011;28;20993;-84
2022/01/19 14:40:58;;;;;;;18.27;12.33;;;5.50;99.90;;;;;;4992517;28;20435;-85